createdAt,value
2018-06-14T00:02:14.035Z,4.93
2018-06-14T00:07:18.007Z,5.40
2018-06-14T00:12:21.990Z,4.90
2018-06-14T00:17:26.101Z,5.63
2018-06-14T00:22:30.107Z,5.80
2018-06-14T00:27:34.096Z,5.13
2018-06-14T00:32:38.091Z,5.03
2018-06-14T00:37:42.949Z,4.93
2018-06-14T00:42:46.938Z,5.47
2018-06-14T00:47:50.914Z,5.63
2018-06-14T00:52:54.899Z,5.70
2018-06-14T00:57:58.831Z,4.87
2018-06-14T01:03:02.630Z,4.57
2018-06-14T01:08:06.478Z,3.30
2018-06-14T01:13:10.478Z,4.37
2018-06-14T01:18:14.421Z,4.30
2018-06-14T01:23:18.503Z,5.63
2018-06-14T01:28:22.459Z,5.77
2018-06-14T01:33:26.439Z,5.83
2018-06-14T01:38:30.451Z,6.80
2018-06-14T01:43:34.191Z,6.17
2018-06-14T01:48:38.064Z,6.77
2018-06-14T01:53:42.133Z,6.23
2018-06-14T01:58:46.105Z,6.40
2018-06-14T02:03:50.118Z,6.67
2018-06-14T02:08:54.120Z,6.50
2018-06-14T02:13:58.135Z,6.73
2018-06-14T02:19:02.128Z,6.67
2018-06-14T02:24:06.094Z,3.97
2018-06-14T02:29:10.092Z,5.03
2018-06-14T02:34:14.037Z,5.63
2018-06-14T02:39:18.007Z,6.30
2018-06-14T02:44:22.007Z,7.80
2018-06-14T02:49:25.979Z,8.10
2018-06-14T02:54:29.908Z,7.50
2018-06-14T02:59:33.663Z,7.53
2018-06-14T03:04:37.555Z,8.70
2018-06-14T03:09:41.299Z,5.63
2018-06-14T03:14:45.312Z,6.07
2018-06-14T03:19:50.711Z,7.93
2018-06-14T03:24:54.667Z,7.90
2018-06-14T03:29:58.672Z,8.50
2018-06-14T03:35:02.684Z,7.37
2018-06-14T03:40:06.623Z,7.53
2018-06-14T03:45:11.400Z,7.80
2018-06-14T03:50:15.148Z,7.73
2018-06-14T03:55:19.017Z,7.67
2018-06-14T04:00:23.005Z,7.47
2018-06-14T04:05:26.993Z,7.70
2018-06-14T04:10:30.991Z,7.93
2018-06-14T04:15:34.988Z,8.20
2018-06-14T04:20:38.977Z,6.40
2018-06-14T04:25:42.967Z,8.50
2018-06-14T04:30:47.050Z,7.57
2018-06-14T04:35:51.031Z,8.43
2018-06-14T04:40:55.031Z,9.13
2018-06-14T04:45:59.023Z,9.73
2018-06-14T04:51:03.959Z,10.10
2018-06-14T04:56:10.795Z,8.87
2018-06-14T05:01:14.809Z,9.37
2018-06-14T05:06:19.325Z,9.10
2018-06-14T05:11:23.187Z,9.17
2018-06-14T05:16:27.173Z,9.37
2018-06-14T05:21:31.178Z,7.70
2018-06-14T05:26:35.172Z,6.30
2018-06-14T05:31:39.172Z,8.37
2018-06-14T05:36:43.167Z,8.30
2018-06-14T05:41:47.194Z,8.40
2018-06-14T05:46:51.178Z,8.03
2018-06-14T05:51:55.175Z,7.20
2018-06-14T05:56:59.168Z,8.00
2018-06-14T06:02:03.195Z,8.13
2018-06-14T06:07:08.300Z,6.77
2018-06-14T06:12:12.303Z,7.63
2018-06-14T06:17:16.273Z,6.93
2018-06-14T06:22:20.259Z,6.57
2018-06-14T06:27:24.244Z,6.53
2018-06-14T06:32:28.228Z,5.63
2018-06-14T06:37:32.435Z,7.00
2018-06-14T06:42:36.442Z,6.93
2018-06-14T06:47:40.412Z,6.90
2018-06-14T06:52:44.143Z,6.13
2018-06-14T06:57:48.000Z,5.70
2018-06-14T07:02:51.975Z,6.97
2018-06-14T07:07:55.978Z,6.57
2018-06-14T07:12:59.975Z,6.40
2018-06-14T07:18:03.955Z,6.30
2018-06-14T07:23:07.950Z,4.60
2018-06-14T07:28:11.918Z,5.50
2018-06-14T07:33:15.933Z,5.80
2018-06-14T07:38:19.923Z,5.67
2018-06-14T07:43:28.613Z,6.27
2018-06-14T07:48:32.613Z,4.73
2018-06-14T07:53:36.639Z,4.80
2018-06-14T07:58:40.627Z,6.43
2018-06-14T08:03:44.562Z,6.73
2018-06-14T08:08:48.576Z,6.43
2018-06-14T08:13:52.565Z,5.80
2018-06-14T08:18:56.587Z,4.23
2018-06-14T08:24:00.562Z,4.13
2018-06-14T08:29:04.535Z,4.60
2018-06-14T08:34:08.527Z,4.80
2018-06-14T08:39:12.501Z,5.37
2018-06-14T08:44:18.247Z,4.80
2018-06-14T08:49:22.664Z,5.07
2018-06-14T08:54:27.205Z,3.20
2018-06-14T08:59:31.411Z,3.83
2018-06-14T09:04:35.404Z,4.20
2018-06-14T09:09:39.460Z,3.90
2018-06-14T09:14:43.888Z,3.27
2018-06-14T09:19:48.041Z,2.63
2018-06-14T09:24:57.041Z,2.87
2018-06-14T09:30:01.220Z,2.50
2018-06-14T09:35:05.213Z,2.53
2018-06-14T09:40:09.187Z,2.40
2018-06-14T09:45:13.159Z,2.70
2018-06-14T09:50:17.929Z,2.90
2018-06-14T09:55:21.907Z,2.37
2018-06-14T10:00:25.934Z,2.83
2018-06-14T10:05:29.903Z,2.70
2018-06-14T10:10:33.895Z,2.53
2018-06-14T10:15:37.899Z,3.13
2018-06-14T10:20:41.653Z,2.87
2018-06-14T10:25:45.540Z,2.87
2018-06-14T10:30:49.318Z,2.80
2018-06-14T10:35:53.181Z,2.50
2018-06-14T10:40:56.939Z,3.07
2018-06-14T10:46:00.787Z,3.43
2018-06-14T10:51:04.833Z,3.43
2018-06-14T10:56:08.848Z,2.57
2018-06-14T11:01:12.811Z,2.80
2018-06-14T11:06:16.827Z,2.50
2018-06-14T11:11:21.060Z,2.70
2018-06-14T11:16:25.064Z,3.23
2018-06-14T11:21:29.112Z,2.97
2018-06-14T11:26:33.102Z,2.27
2018-06-14T11:31:37.084Z,2.70
2018-06-14T11:36:41.079Z,2.63
2018-06-14T11:41:44.791Z,3.53
2018-06-14T11:46:48.674Z,2.63
2018-06-14T11:51:52.647Z,2.70
2018-06-14T11:56:56.409Z,3.00
2018-06-14T12:02:00.936Z,3.40
2018-06-14T12:07:04.936Z,2.80
2018-06-14T12:12:09.084Z,3.20
2018-06-14T12:17:13.041Z,2.53
2018-06-14T12:22:17.028Z,2.57
2018-06-14T12:27:21.020Z,3.07
2018-06-14T12:32:25.011Z,3.53
2018-06-14T12:37:28.985Z,3.63
2018-06-14T12:42:33.072Z,2.40
2018-06-14T12:47:37.058Z,2.53
2018-06-14T12:52:41.036Z,2.73
2018-06-14T12:57:45.038Z,2.57
2018-06-14T13:02:49.016Z,2.23
2018-06-14T13:07:53.193Z,3.60
2018-06-14T13:12:57.228Z,2.30
2018-06-14T13:18:01.230Z,2.63
2018-06-14T13:23:05.336Z,2.33
2018-06-14T13:28:09.320Z,2.63
2018-06-14T13:33:13.320Z,3.00
2018-06-14T13:38:17.312Z,3.40
2018-06-14T13:43:21.294Z,2.70
2018-06-14T13:48:25.282Z,3.17
2018-06-14T13:53:29.278Z,3.47
2018-06-14T13:58:33.201Z,2.93
2018-06-14T14:03:37.187Z,3.00
2018-06-14T14:08:41.181Z,2.80
2018-06-14T14:13:45.106Z,3.10
2018-06-14T14:18:49.154Z,3.43
2018-06-14T14:23:53.180Z,3.37
2018-06-14T14:28:57.147Z,2.57
2018-06-14T14:34:00.886Z,3.13
2018-06-14T14:39:07.637Z,2.80
2018-06-14T14:44:11.663Z,2.90
2018-06-14T14:49:15.616Z,3.17
2018-06-14T14:54:19.607Z,2.93
2018-06-14T14:59:23.583Z,3.80
2018-06-14T15:04:27.602Z,4.53
2018-06-14T15:09:31.604Z,3.50
2018-06-14T15:14:36.586Z,4.70
2018-06-14T15:19:40.596Z,4.17
2018-06-14T15:24:44.532Z,5.13
2018-06-14T15:29:48.552Z,4.37
2018-06-14T15:34:52.567Z,4.63
2018-06-14T15:39:57.306Z,3.43
2018-06-14T15:45:01.292Z,3.63
2018-06-14T15:50:05.304Z,3.30
2018-06-14T15:55:20.551Z,3.50
2018-06-14T16:00:24.532Z,3.17
2018-06-14T16:05:28.501Z,5.73
2018-06-14T16:10:32.501Z,6.07
2018-06-14T16:15:36.494Z,6.53
2018-06-14T16:20:40.476Z,3.07
2018-06-14T16:25:44.453Z,4.90
2018-06-14T16:30:48.479Z,6.57
2018-06-14T16:35:52.555Z,7.73
2018-06-14T16:40:56.551Z,8.63
2018-06-14T16:46:00.666Z,8.30
2018-06-14T16:51:04.499Z,8.03
2018-06-14T16:56:08.561Z,8.60
2018-06-14T17:01:12.580Z,9.60
2018-06-14T17:06:16.620Z,10.13
2018-06-14T17:11:20.333Z,11.97
2018-06-14T17:16:24.204Z,8.87
2018-06-14T17:21:28.197Z,8.63
2018-06-14T17:26:32.180Z,10.60
2018-06-14T17:31:36.179Z,7.30
2018-06-14T17:36:40.177Z,6.50
2018-06-14T17:41:44.401Z,7.50
2018-06-14T17:46:48.412Z,4.30
2018-06-14T17:51:52.666Z,4.90
2018-06-14T17:56:56.731Z,7.80
2018-06-14T18:02:00.737Z,6.43
2018-06-14T18:07:04.723Z,5.77
2018-06-14T18:12:08.777Z,5.47
2018-06-14T18:17:12.823Z,6.73
2018-06-14T18:22:16.803Z,7.30
2018-06-14T18:27:20.836Z,4.33
2018-06-14T18:32:24.812Z,7.47
2018-06-14T18:37:28.786Z,4.77
2018-06-14T18:42:32.867Z,6.27
2018-06-14T18:47:36.864Z,6.33
2018-06-14T18:52:40.865Z,4.97
2018-06-14T18:57:44.840Z,6.93
2018-06-14T19:02:49.205Z,4.70
2018-06-14T19:07:53.195Z,6.90
2018-06-14T19:12:57.221Z,6.23
2018-06-14T19:18:01.302Z,6.23
2018-06-14T19:23:05.411Z,4.33
2018-06-14T19:28:09.454Z,4.97
2018-06-14T19:33:13.499Z,5.63
2018-06-14T19:38:17.472Z,5.33
2018-06-14T19:43:21.465Z,7.97
2018-06-14T19:48:25.470Z,6.27
2018-06-14T19:53:29.492Z,5.23
2018-06-14T19:58:33.485Z,8.03
2018-06-14T20:03:37.506Z,4.40
2018-06-14T20:08:41.527Z,5.60
2018-06-14T20:13:45.558Z,10.17
2018-06-14T20:18:49.825Z,5.37
2018-06-14T20:23:54.068Z,7.10
2018-06-14T20:28:58.116Z,6.60
2018-06-14T20:34:02.099Z,7.97
2018-06-14T20:39:09.019Z,10.87
2018-06-14T20:44:13.024Z,11.50
2018-06-14T20:49:16.998Z,5.37
2018-06-14T21:00:28.390Z,11.07
2018-06-14T21:05:33.295Z,7.00
2018-06-14T21:10:38.177Z,5.37
2018-06-14T21:15:42.924Z,5.03
2018-06-14T21:20:47.021Z,7.83
2018-06-14T21:25:50.983Z,8.23
2018-06-14T21:30:54.971Z,5.33
2018-06-14T21:35:58.691Z,7.40
2018-06-14T21:41:02.520Z,7.90
2018-06-14T21:46:06.514Z,5.90
2018-06-14T21:51:10.250Z,4.73
2018-06-14T21:56:14.100Z,6.53
2018-06-14T22:01:18.083Z,10.33
2018-06-14T22:06:21.862Z,7.67
2018-06-14T22:11:25.838Z,4.90
2018-06-14T22:16:29.813Z,4.93
2018-06-14T22:21:33.891Z,7.07
2018-06-14T22:26:38.845Z,10.73
2018-06-14T22:31:42.841Z,13.57
2018-06-14T22:36:46.847Z,10.43
2018-06-14T22:41:50.850Z,8.13
2018-06-14T22:46:54.892Z,11.47
2018-06-14T22:53:08.780Z,8.07
2018-06-14T22:58:14.802Z,8.60
2018-06-14T23:03:18.796Z,9.37
2018-06-14T23:08:22.810Z,5.17
2018-06-14T23:13:26.824Z,9.93
2018-06-14T23:18:30.873Z,11.67
2018-06-14T23:23:34.950Z,12.40
2018-06-14T23:28:39.812Z,8.27
2018-06-14T23:33:43.824Z,11.77
2018-06-14T23:38:47.779Z,8.00
2018-06-14T23:43:52.555Z,11.57
2018-06-14T23:48:56.539Z,11.07
2018-06-14T23:54:00.517Z,14.03
2018-06-14T23:59:04.539Z,6.63
